Time;durP1;ratioP1;P1;durP2;ratioP2;P2;SDS_P1;SDS_P2;PMS_P1;PMS_P2;Temp;Humidity;BMP_temperature;BMP_pressure;BME280_temperature;BME280_humidity;BME280_pressure;Samples;Min_cycle;Max_cycle;Signal;HPM_P1;HPM_P2
2023/01/20 00:01:48;;;;;;;18.40;7.07;;;-2.70;59.60;;;-8.21;100.00;94735.38;4989186;28;20528;-45
2023/01/20 00:04:22;;;;;;;;;;;-2.80;59.60;;;-8.24;100.00;94733.13;4976332;28;20026;-45
2023/01/20 00:06:50;;;;;;;16.40;7.45;;;-2.70;59.60;;;-8.26;100.00;94736.84;4991098;28;20372;-49
2023/01/20 00:09:18;;;;;;;20.48;7.38;;;-2.80;59.60;;;-8.29;100.00;94738.00;4976091;28;20451;-45
2023/01/20 00:11:56;;;;;;;12.27;6.78;;;-2.80;59.60;;;-8.30;100.00;94740.72;4974571;28;20037;-46
2023/01/20 00:14:24;;;;;;;14.23;7.45;;;-2.80;59.70;;;-8.31;100.00;94746.88;4975549;28;20053;-49
2023/01/20 00:16:50;;;;;;;16.17;7.35;;;-2.80;59.80;;;-8.33;100.00;94751.44;4992314;28;20014;-49
2023/01/20 00:19:22;;;;;;;15.85;7.22;;;-2.80;59.80;;;-8.35;100.00;94743.81;4986198;28;20109;-46
2023/01/20 00:21:48;;;;;;;13.93;6.78;;;-2.90;59.80;;;-8.38;100.00;94744.97;4973991;28;20018;-48
2023/01/20 00:24:14;;;;;;;14.15;6.90;;;-2.80;59.80;;;-8.42;100.00;94746.31;4977321;28;20385;-46
2023/01/20 00:26:43;;;;;;;13.32;6.40;;;-2.90;59.80;;;-8.44;100.00;94750.84;4959513;28;20496;-46
2023/01/20 00:29:18;;;;;;;13.82;6.15;;;-2.90;59.80;;;-8.46;100.00;94754.56;4993123;28;20539;-47
2023/01/20 00:31:44;;;;;;;12.02;6.97;;;-2.90;59.90;;;-8.50;100.00;94753.28;4987221;28;20036;-46
2023/01/20 00:34:16;;;;;;;14.88;7.35;;;-2.90;59.90;;;-8.53;100.00;94762.16;4992839;28;20025;-45
2023/01/20 00:36:42;;;;;;;21.10;8.45;;;-3.00;59.90;;;-8.57;100.00;94760.91;4969874;28;20514;-46
2023/01/20 00:39:10;;;;;;;18.65;8.40;;;-3.00;59.90;;;-8.55;100.00;94765.88;4990489;28;20030;-47
2023/01/20 00:41:36;;;;;;;21.90;9.00;;;-3.00;60.00;;;-8.56;100.00;94761.69;4999528;28;20025;-45
2023/01/20 00:44:02;;;;;;;16.30;8.23;;;-3.00;60.00;;;-8.56;100.00;94767.66;4991241;28;20033;-47
2023/01/20 00:46:31;;;;;;;17.67;7.85;;;-3.00;60.10;;;-8.57;100.00;94762.69;4992918;28;20038;-45
2023/01/20 00:51:42;;;;;;;18.98;7.35;;;-3.00;60.20;;;-8.62;100.00;94773.50;4980644;28;20546;-50
2023/01/20 00:54:17;;;;;;;15.23;8.13;;;-3.00;60.20;;;-8.64;100.00;94778.84;4989997;28;20038;-45
2023/01/20 00:56:48;;;;;;;17.38;7.47;;;-3.10;60.20;;;-8.66;100.00;94778.19;4971890;28;20025;-44
2023/01/20 00:59:17;;;;;;;16.25;8.00;;;-3.10;60.20;;;-8.66;100.00;94778.19;4974791;28;20052;-47
2023/01/20 01:01:46;;;;;;;13.68;7.10;;;-3.10;60.20;;;-8.67;100.00;94786.91;4987311;28;20038;-46
2023/01/20 01:04:14;;;;;;;16.25;8.50;;;-3.10;60.30;;;-8.63;100.00;94784.81;4971175;28;20541;-46
2023/01/20 01:06:40;;;;;;;16.75;7.85;;;-3.10;60.40;;;-8.63;100.00;94785.59;4971998;28;20041;-45
2023/01/20 01:09:09;;;;;;;15.10;8.02;;;-3.10;60.40;;;-8.63;100.00;94784.81;4983774;28;20026;-45
2023/01/20 01:11:35;;;;;;;16.20;7.90;;;-3.10;60.40;;;-8.66;100.00;94791.09;4968180;28;20026;-50
2023/01/20 01:14:01;;;;;;;17.48;8.60;;;-3.10;60.40;;;-8.68;100.00;94798.22;4971187;28;20029;-48
2023/01/20 01:16:27;;;;;;;14.82;7.68;;;-3.10;60.40;;;-8.70;100.00;94792.41;4971648;28;20110;-45
2023/01/20 01:18:55;;;;;;;18.88;8.82;;;-3.20;60.40;;;-8.72;100.00;94796.13;4971732;28;20045;-48
2023/01/20 01:21:22;;;;;;;23.30;9.55;;;-3.10;60.60;;;-8.74;100.00;94801.47;4971321;28;20030;-45
2023/01/20 01:23:48;;;;;;;17.85;8.70;;;-3.20;60.50;;;-8.77;100.00;94801.78;4957257;28;20116;-47
2023/01/20 01:26:20;;;;;;;15.73;8.15;;;-3.10;60.60;;;-8.77;100.00;94804.38;4955520;28;20164;-48
2023/01/20 01:29:07;;;;;;;16.60;8.32;;;-3.20;60.60;;;-8.78;100.00;94813.06;4954071;28;20031;-47
2023/01/20 01:31:39;;;;;;;17.10;8.50;;;-3.20;60.60;;;-8.76;100.00;94815.50;4983073;28;20037;-47
2023/01/20 01:34:17;;;;;;;16.98;7.60;;;-3.20;60.60;;;-8.75;100.00;94824.84;4970952;28;20044;-48
2023/01/20 01:36:45;;;;;;;13.75;7.28;;;-3.20;60.60;;;-8.75;100.00;94824.84;4962823;28;20053;-46
2023/01/20 01:39:14;;;;;;;17.48;8.82;;;-3.20;60.70;;;-8.75;100.00;94833.41;4972278;28;20493;-45
2023/01/20 01:41:40;;;;;;;13.50;7.82;;;-3.20;60.70;;;-8.77;100.00;94837.09;4985582;28;20022;-47
2023/01/20 01:44:20;;;;;;;19.35;8.75;;;-3.20;60.70;;;-8.75;100.00;94838.56;4960947;28;20035;-45
2023/01/20 01:46:47;;;;;;;18.40;9.07;;;-3.20;60.90;;;-8.70;100.00;94833.72;4959771;28;20014;-46
2023/01/20 01:49:30;;;;;;;17.98;8.73;;;-3.20;60.90;;;-8.65;100.00;94835.81;4985996;28;20045;-45
2023/01/20 01:52:09;;;;;;;18.38;8.05;;;-3.20;61.00;;;-8.64;100.00;94840.81;4976329;28;20022;-45
2023/01/20 01:54:44;;;;;;;17.38;7.80;;;-3.20;61.00;;;-8.59;100.00;94836.94;4965244;28;20547;-47
2023/01/20 01:57:11;;;;;;;14.75;7.47;;;-3.20;61.00;;;-8.59;100.00;94840.31;4967185;28;20023;-48
2023/01/20 01:59:38;;;;;;;14.32;6.60;;;-3.20;61.00;;;-8.57;100.00;94837.56;4984878;28;20404;-47
2023/01/20 02:02:04;;;;;;;12.75;6.88;;;-3.10;61.90;;;-8.60;100.00;94833.53;4988607;23;20626;-50
2023/01/20 02:04:47;;;;;;;14.30;7.13;;;-3.10;61.10;;;-8.62;100.00;94830.31;4970291;28;20064;-46
2023/01/20 02:07:20;;;;;;;14.32;6.85;;;-3.10;61.10;;;-8.64;100.00;94837.44;4970520;28;20072;-45
2023/01/20 02:09:49;;;;;;;17.40;7.60;;;-3.20;61.00;;;-8.68;100.00;94836.97;4970327;28;20472;-52
2023/01/20 02:12:35;;;;;;;15.23;7.80;;;-3.20;61.00;;;-8.69;100.00;94834.53;4969687;28;20394;-49
2023/01/20 02:15:06;;;;;;;16.63;5.93;;;-3.20;61.00;;;-8.72;100.00;94845.97;4970188;28;20117;-44
2023/01/20 02:18:20;;;;;;;12.32;6.95;;;-3.20;61.00;;;-8.72;100.00;94853.72;4948516;28;20508;-44
2023/01/20 02:21:16;;;;;;;14.38;7.03;;;-3.20;61.10;;;-8.74;100.00;94858.28;4969526;28;20026;-48
2023/01/20 02:24:47;;;;;;;9.90;5.88;;;-3.20;61.00;;;-8.71;100.00;94862.28;4968420;28;20030;-47
2023/01/20 02:27:35;;;;;;;14.70;7.13;;;-3.20;61.90;;;-8.67;100.00;94858.41;4968500;28;20034;-45
2023/01/20 02:31:13;;;;;;;14.60;6.20;;;-3.20;61.20;;;-8.64;100.00;94860.69;4969841;28;20022;-47
2023/01/20 02:33:57;;;;;;;12.50;6.70;;;-3.20;61.30;;;-8.64;100.00;94871.00;4970513;28;20038;-52
2023/01/20 02:37:31;;;;;;;11.88;6.50;;;-3.20;61.30;;;-8.64;100.00;94873.59;4969771;28;20101;-45
2023/01/20 02:40:46;;;;;;;14.30;7.38;;;-3.20;61.40;;;-8.65;100.00;94865.03;4874817;29;20375;-50
2023/01/20 02:43:56;;;;;;;10.60;5.97;;;-3.20;61.40;;;-8.59;100.00;94868.72;4969596;28;20485;-46
2023/01/20 02:47:18;;;;;;;8.63;5.72;;;-3.20;61.40;;;-8.61;100.00;94873.25;4968031;28;20081;-50
2023/01/20 02:49:53;;;;;;;12.45;6.15;;;-3.20;61.40;;;-8.60;100.00;94881.81;4966862;28;20030;-44
2023/01/20 02:52:55;;;;;;;11.73;5.65;;;-3.20;61.40;;;-8.60;100.00;94877.44;4968950;28;20496;-49
2023/01/20 02:55:47;;;;;;;13.20;6.77;;;-3.20;61.40;;;-8.59;100.00;94873.88;4963352;28;20582;-46
2023/01/20 02:58:41;;;;;;;12.30;6.07;;;-3.20;61.40;;;-8.60;100.00;94874.06;4969703;28;20029;-47
2023/01/20 03:01:22;;;;;;;12.52;7.25;;;-3.20;61.40;;;-8.65;100.00;94875.38;4965520;28;20135;-45
2023/01/20 03:03:55;;;;;;;13.23;6.38;;;-3.20;61.40;;;-8.65;100.00;94883.13;4965387;28;20041;-46
2023/01/20 03:06:30;;;;;;;12.18;6.68;;;-3.20;61.50;;;-8.67;100.00;94871.34;4968111;28;20025;-45
2023/01/20 03:09:34;;;;;;;11.70;6.53;;;-3.20;61.50;;;-8.68;100.00;94885.19;4960354;28;20050;-48
2023/01/20 03:12:21;;;;;;;15.57;6.80;;;-3.20;61.50;;;-8.67;100.00;94890.22;4949844;28;20050;-46
2023/01/20 03:14:50;;;;;;;16.67;6.68;;;-3.20;61.50;;;-8.67;100.00;94890.22;4966710;28;20030;-45
2023/01/20 03:17:20;;;;;;;11.30;5.55;;;-3.10;61.50;;;-8.69;100.00;94886.97;4960396;28;20037;-46
2023/01/20 03:19:47;;;;;;;20.15;6.50;;;-3.10;61.60;;;-8.64;100.00;94891.66;4963613;28;20286;-46
2023/01/20 03:22:19;;;;;;;12.30;6.72;;;-3.10;61.60;;;-8.56;100.00;94901.16;4960770;28;20380;-47
2023/01/20 03:24:49;;;;;;;11.05;6.28;;;-3.10;61.80;;;-8.53;100.00;94901.63;4968723;28;20022;-48
2023/01/20 03:27:15;;;;;;;11.18;5.28;;;-3.00;61.80;;;-8.46;100.00;94902.63;4937338;28;20070;-46
2023/01/20 03:29:41;;;;;;;12.43;6.75;;;-3.00;61.90;;;-8.40;100.00;94908.88;4963161;28;20497;-46
2023/01/20 03:32:14;;;;;;;13.40;6.15;;;-2.90;62.00;;;-8.35;100.00;94909.19;4964741;28;20114;-48
2023/01/20 03:34:43;;;;;;;12.05;5.80;;;-2.90;62.00;;;-8.29;100.00;94915.47;4958115;28;20117;-46
2023/01/20 03:37:12;;;;;;;9.55;5.85;;;-2.80;62.10;;;-8.24;100.00;94913.19;4951811;28;20026;-45
2023/01/20 03:39:39;;;;;;;13.18;6.32;;;-2.80;62.00;;;-8.26;100.00;94913.38;4949436;29;20141;-47
2023/01/20 03:42:32;;;;;;;11.55;6.03;;;-2.70;62.00;;;-8.21;100.00;94920.59;4961923;28;20018;-46
2023/01/20 03:45:25;;;;;;;14.90;6.40;;;-2.70;62.00;;;-8.17;100.00;94921.91;4958146;28;20030;-48
2023/01/20 03:48:21;;;;;;;10.85;5.28;;;-2.70;62.00;;;-8.13;100.00;94925.78;4957568;28;20392;-50
2023/01/20 03:51:02;;;;;;;11.18;5.60;;;-2.60;62.00;;;-8.08;100.00;94927.84;4969970;28;20074;-51
2023/01/20 03:54:09;;;;;;;11.57;5.55;;;-2.60;61.90;;;-8.05;100.00;94924.94;4955368;28;20688;-45
2023/01/20 03:57:17;;;;;;;11.35;5.90;;;-2.60;62.00;;;-8.00;100.00;94931.22;4949473;29;20393;-46
2023/01/20 03:59:50;;;;;;;10.38;6.28;;;-2.50;62.00;;;-7.95;100.00;94928.16;4960797;28;20037;-45
2023/01/20 04:02:16;;;;;;;11.38;6.38;;;-2.50;61.90;;;-7.87;100.00;94935.06;4940653;28;20505;-50
2023/01/20 04:04:47;;;;;;;11.32;5.68;;;-2.40;62.10;;;-7.82;100.00;94932.78;4965578;28;20058;-47
2023/01/20 04:07:26;;;;;;;11.38;6.38;;;-2.40;62.10;;;-7.81;100.00;94936.97;4967711;28;20108;-46
2023/01/20 04:10:07;;;;;;;14.18;6.20;;;-2.30;62.20;;;-7.80;100.00;94936.00;4967966;28;20038;-48
2023/01/20 04:12:33;;;;;;;12.63;6.45;;;-2.30;62.20;;;-7.76;100.00;94934.72;4949487;28;20412;-45
2023/01/20 04:15:00;;;;;;;11.75;6.18;;;-2.30;62.10;;;-7.75;100.00;94941.50;4958711;28;20035;-46
2023/01/20 04:17:28;;;;;;;13.30;6.70;;;-2.20;62.10;;;-7.70;100.00;94952.94;4954779;28;20034;-46
2023/01/20 04:20:15;;;;;;;11.48;5.88;;;-2.20;62.10;;;-7.65;100.00;94954.22;4970029;28;20478;-45
2023/01/20 04:23:28;;;;;;;13.18;5.35;;;-2.10;62.30;;;-7.63;100.00;94954.88;4970291;28;20128;-48
2023/01/20 04:26:00;;;;;;;10.18;6.07;;;-2.10;62.20;;;-7.62;100.00;94953.88;4968311;28;20108;-46
2023/01/20 04:28:29;;;;;;;11.23;5.80;;;-2.00;62.10;;;-7.59;100.00;94958.72;4971064;28;20060;-48
2023/01/20 04:30:57;;;;;;;11.73;6.00;;;-2.00;62.10;;;-7.59;100.00;94956.94;4960025;28;20019;-47
2023/01/20 04:33:29;;;;;;;12.10;5.63;;;-2.00;62.10;;;-7.54;100.00;94959.84;4968705;28;20034;-46
2023/01/20 04:35:57;;;;;;;10.73;5.80;;;-2.00;62.20;;;-7.47;100.00;94962.56;4952024;28;20026;-44
2023/01/20 04:38:29;;;;;;;9.57;5.78;;;-1.90;62.20;;;-7.45;100.00;94961.41;4959254;28;20030;-49
2023/01/20 04:40:55;;;;;;;12.60;6.53;;;-1.90;62.20;;;-7.44;100.00;94972.56;4954629;28;20072;-53
2023/01/20 04:43:21;;;;;;;14.00;5.97;;;-1.90;62.10;;;-7.39;100.00;94972.88;4969249;28;20030;-46
2023/01/20 04:45:47;;;;;;;10.90;6.68;;;-1.90;62.20;;;-7.37;100.00;94973.50;4972392;28;20485;-46
2023/01/20 04:48:12;;;;;;;13.27;6.47;;;-1.90;62.20;;;-7.34;100.00;94975.75;4970467;28;20117;-47
2023/01/20 04:50:42;;;;;;;9.45;5.15;;;-1.80;62.20;;;-7.32;100.00;94975.59;4987001;28;20049;-47
2023/01/20 04:53:19;;;;;;;13.88;6.22;;;-1.80;62.20;;;-7.33;100.00;94977.38;4971550;28;20038;-47
2023/01/20 04:55:45;;;;;;;13.90;5.47;;;-1.70;62.30;;;-7.32;100.00;94983.38;4965419;28;20032;-47
2023/01/20 04:58:17;;;;;;;10.32;5.93;;;-1.70;62.10;;;-7.34;100.00;94987.91;4966888;28;20026;-47
2023/01/20 05:00:45;;;;;;;10.87;6.23;;;-1.70;62.10;;;-7.28;100.00;94992.41;4980497;28;20022;-46
2023/01/20 05:03:18;;;;;;;11.43;6.20;;;-1.70;62.10;;;-7.27;100.00;94989.66;4968238;28;20062;-45
2023/01/20 05:05:54;;;;;;;10.48;5.65;;;-1.70;62.20;;;-7.27;100.00;94994.00;4969810;28;20026;-46
2023/01/20 05:08:20;;;;;;;11.38;6.05;;;-1.70;62.10;;;-7.27;100.00;94996.59;4964648;28;20081;-46
2023/01/20 05:10:46;;;;;;;13.88;5.97;;;-1.70;62.00;;;-7.27;100.00;94994.00;4950713;28;20386;-48
2023/01/20 05:13:12;;;;;;;10.95;6.07;;;-1.70;62.10;;;-7.27;100.00;95006.94;4967430;28;20030;-48
2023/01/20 05:15:40;;;;;;;16.15;6.47;;;-1.70;62.10;;;-7.24;100.00;95002.25;4964507;28;20415;-45
2023/01/20 05:18:06;;;;;;;15.30;6.85;;;-1.70;62.10;;;-7.23;100.00;95006.44;4969171;28;20106;-46
2023/01/20 05:20:32;;;;;;;11.27;6.50;;;-1.70;62.10;;;-7.18;100.00;95010.31;4971683;28;20118;-46
2023/01/20 05:23:07;;;;;;;9.88;5.70;;;-1.60;62.30;;;-7.13;100.00;95023.56;4969370;28;20087;-49
2023/01/20 05:25:37;;;;;;;11.95;5.80;;;-1.60;62.30;;;-7.12;100.00;95022.56;4969714;28;20030;-45
2023/01/20 05:28:06;;;;;;;8.95;5.20;;;-1.60;62.30;;;-7.13;100.00;95023.56;4970646;28;20030;-47
2023/01/20 05:30:38;;;;;;;9.57;4.88;;;-1.60;62.30;;;-7.11;100.00;95029.34;4969163;28;20022;-48
2023/01/20 05:33:04;;;;;;;13.02;5.80;;;-1.60;62.30;;;-7.12;100.00;95025.16;4970537;28;20168;-46
2023/01/20 05:35:33;;;;;;;9.90;5.65;;;-1.50;62.30;;;-7.08;100.00;95034.19;4971197;28;20042;-45
2023/01/20 05:38:01;;;;;;;8.30;4.85;;;-1.50;62.30;;;-7.07;100.00;95036.63;4970184;28;20500;-48
2023/01/20 05:40:38;;;;;;;10.75;5.05;;;-1.50;62.30;;;-7.03;100.00;95037.91;4970076;28;20054;-49
2023/01/20 05:43:09;;;;;;;8.27;5.15;;;-1.50;62.30;;;-7.03;100.00;95040.50;4969722;28;20400;-47
2023/01/20 05:45:35;;;;;;;8.35;5.07;;;-1.40;62.40;;;-6.99;100.00;95053.91;4969455;28;20362;-52
2023/01/20 05:48:05;;;;;;;12.88;6.00;;;-1.40;62.30;;;-6.93;100.00;95058.41;4968883;28;20038;-47
2023/01/20 05:50:31;;;;;;;9.55;5.45;;;-1.30;62.50;;;-6.87;100.00;95056.94;4969389;28;20128;-48
2023/01/20 05:52:57;;;;;;;10.50;6.10;;;-1.30;62.40;;;-6.83;100.00;95071.16;4970078;28;20109;-49
2023/01/20 05:55:23;;;;;;;8.25;4.55;;;-1.30;62.50;;;-6.81;100.00;95070.00;4982807;28;20473;-46
2023/01/20 05:57:49;;;;;;;9.50;5.07;;;-1.20;62.50;;;-6.79;100.00;95075.84;4970770;28;20049;-51
2023/01/20 06:00:18;;;;;;;12.80;5.07;;;-1.20;62.50;;;-6.77;100.00;95080.81;4968322;28;20018;-46
2023/01/20 06:02:47;;;;;;;7.20;4.93;;;-1.10;62.60;;;-6.72;100.00;95085.50;4980195;28;20492;-46
2023/01/20 06:05:13;;;;;;;9.73;5.03;;;-1.10;62.50;;;-6.69;100.00;95087.78;4970850;28;20411;-46
2023/01/20 06:07:48;;;;;;;9.32;4.22;;;-1.00;62.40;;;-6.65;100.00;95092.44;4984571;28;20033;-45
2023/01/20 06:10:24;;;;;;;10.02;5.20;;;-1.00;62.40;;;-6.61;100.00;95104.09;4988629;28;20022;-47
2023/01/20 06:12:56;;;;;;;9.27;5.22;;;-0.90;62.30;;;-6.60;100.00;95099.69;4988483;28;20120;-47
2023/01/20 06:15:31;;;;;;;9.65;5.05;;;-0.90;62.30;;;-6.55;100.00;95107.75;4988079;28;20076;-46
2023/01/20 06:17:57;;;;;;;9.07;5.40;;;-0.90;62.20;;;-6.51;100.00;95111.66;4978791;28;20037;-53
2023/01/20 06:20:25;;;;;;;7.28;4.63;;;-0.80;62.20;;;-6.46;100.00;95113.72;4989288;28;20025;-45
2023/01/20 06:22:55;;;;;;;9.57;4.95;;;-0.80;62.30;;;-6.43;100.00;95115.97;4970815;28;20025;-45
2023/01/20 06:25:21;;;;;;;8.85;5.03;;;-0.80;62.30;;;-6.38;100.00;95122.25;4981983;28;20018;-46
2023/01/20 06:27:49;;;;;;;10.30;5.03;;;-0.80;62.20;;;-6.41;100.00;95130.38;4988559;28;20025;-45
2023/01/20 06:30:15;;;;;;;7.68;4.57;;;-0.70;62.20;;;-6.37;100.00;95125.66;4971758;28;20089;-49
2023/01/20 06:32:47;;;;;;;6.85;4.18;;;-0.70;62.10;;;-6.36;100.00;95141.03;4988743;28;20025;-45
2023/01/20 06:35:14;;;;;;;7.28;4.57;;;-0.70;62.10;;;-6.32;99.98;95136.31;4989623;28;20025;-47
2023/01/20 06:37:40;;;;;;;8.43;5.13;;;-0.70;62.10;;;-6.29;99.98;95136.78;4970153;28;20117;-46
2023/01/20 06:40:10;;;;;;;7.53;4.93;;;-0.70;62.10;;;-6.25;99.86;95139.03;4972025;28;20507;-46
2023/01/20 06:42:50;;;;;;;8.48;4.57;;;-0.60;62.20;;;-6.24;99.59;95151.00;4988080;28;20035;-52
2023/01/20 06:45:16;;;;;;;7.75;4.10;;;-0.60;62.20;;;-6.22;99.55;95149.06;4972187;28;20034;-47
2023/01/20 06:47:42;;;;;;;6.78;4.25;;;-0.60;62.20;;;-6.22;99.35;95156.84;4971463;28;20624;-49
2023/01/20 06:50:11;;;;;;;6.45;3.92;;;-0.60;62.10;;;-6.20;99.33;95153.09;4971130;28;20476;-45
2023/01/20 06:52:48;;;;;;;10.45;4.70;;;-0.60;62.10;;;-6.19;99.19;95156.50;4963818;28;20030;-46
2023/01/20 06:55:14;;;;;;;6.97;4.78;;;-0.50;62.10;;;-6.20;98.73;95163.47;4965635;28;20432;-46
2023/01/20 06:57:43;;;;;;;9.07;4.57;;;-0.50;62.00;;;-6.22;98.60;95168.00;4957379;28;20033;-46
2023/01/20 07:00:13;;;;;;;13.13;3.88;;;-0.50;62.00;;;-6.20;98.61;95173.84;4954218;28;20025;-46
2023/01/20 07:02:41;;;;;;;7.00;4.10;;;-0.50;62.00;;;-6.20;97.94;95173.84;4986735;28;20050;-47
2023/01/20 07:05:16;;;;;;;6.60;3.83;;;-0.50;61.90;;;-6.22;98.20;95180.16;4988276;28;20022;-46
2023/01/20 07:07:45;;;;;;;6.55;3.80;;;-0.40;61.90;;;-6.18;98.29;95187.44;4970283;28;20027;-46
2023/01/20 07:10:13;;;;;;;5.88;3.55;;;-0.40;61.90;;;-6.17;98.31;95183.88;4970550;28;20132;-49
2023/01/20 07:12:39;;;;;;;5.82;3.38;;;-0.40;61.80;;;-6.16;98.07;95184.69;4906111;28;25454;-46
2023/01/20 07:15:06;;;;;;;5.97;3.70;;;-0.40;61.80;;;-6.14;98.19;95186.13;4984879;28;20041;-49
2023/01/20 07:17:32;;;;;;;6.32;3.30;;;-0.40;61.80;;;-6.12;97.88;95188.53;4971081;28;20033;-46
2023/01/20 07:19:58;;;;;;;5.68;3.58;;;-0.40;61.80;;;-6.14;98.10;95198.25;4969080;28;20380;-46
2023/01/20 07:22:23;;;;;;;6.72;3.25;;;-0.40;61.70;;;-6.09;97.82;95203.75;4968060;28;20040;-46
2023/01/20 07:24:49;;;;;;;8.02;3.40;;;-0.40;61.80;;;-6.08;98.19;95213.97;4964505;28;20430;-46
2023/01/20 07:27:15;;;;;;;6.05;3.33;;;-0.40;61.70;;;-6.07;97.60;95217.38;4967589;28;20559;-50
2023/01/20 07:29:41;;;;;;;7.45;3.55;;;-0.30;61.80;;;-6.05;97.58;95220.59;4951284;28;20099;-47
2023/01/20 07:32:07;;;;;;;6.45;3.83;;;-0.30;61.70;;;-6.03;97.11;95220.44;4969513;28;20064;-47
2023/01/20 07:34:36;;;;;;;6.03;3.50;;;-0.30;61.70;;;-6.04;96.86;95231.78;4988047;28;20040;-46
2023/01/20 07:37:04;;;;;;;5.72;3.08;;;-0.30;61.60;;;-6.04;96.91;95230.00;4970191;28;20021;-51
2023/01/20 07:39:35;;;;;;;7.53;3.58;;;-0.30;61.60;;;-6.00;97.20;95239.03;4974604;28;20071;-46
2023/01/20 07:42:01;;;;;;;7.45;4.03;;;-0.30;62.40;;;-5.96;96.76;95240.31;4977628;28;20040;-49
2023/01/20 07:44:26;;;;;;;5.03;3.50;;;-0.20;61.60;;;-5.96;97.26;95242.91;4987992;28;20282;-47
2023/01/20 07:46:53;;;;;;;8.27;3.78;;;-0.20;61.60;;;-5.94;97.10;95238.38;4969016;28;20026;-47
2023/01/20 07:49:27;;;;;;;7.10;3.28;;;-0.20;61.60;;;-5.89;96.98;95245.59;4966401;28;20037;-49
2023/01/20 07:51:54;;;;;;;5.78;3.03;;;-0.10;61.60;;;-5.86;96.50;95247.84;4990425;28;20071;-46
2023/01/20 07:54:20;;;;;;;9.00;3.17;;;-0.10;61.60;;;-5.82;96.06;95251.72;4989739;28;20400;-46
2023/01/20 07:56:46;;;;;;;5.25;3.40;;;-0.10;61.60;;;-5.79;96.11;95258.38;4991179;28;20025;-46
2023/01/20 07:59:18;;;;;;;5.15;3.25;;;0.00;61.60;;;-5.76;96.22;95260.63;4956421;28;20558;-46
2023/01/20 08:04:18;;;;;;;6.65;3.28;;;0.10;61.50;;;-5.68;95.96;95269.16;4983914;28;20107;-46
2023/01/20 08:06:44;;;;;;;6.28;3.42;;;0.10;61.50;;;-5.64;95.77;95273.03;4930401;28;31955;-49
2023/01/20 08:09:11;;;;;;;5.00;3.20;;;0.20;61.50;;;-5.60;95.68;95279.50;4986905;28;20057;-45
2023/01/20 08:11:38;;;;;;;7.47;3.42;;;0.20;61.40;;;-5.56;95.58;95274.75;4985017;28;20064;-44
2023/01/20 08:14:04;;;;;;;4.00;2.78;;;0.30;61.30;;;-5.54;95.06;95279.78;4953328;28;20462;-45
2023/01/20 08:16:30;;;;;;;6.38;3.08;;;0.30;61.20;;;-5.57;93.98;95278.34;4940002;28;20034;-44
2023/01/20 08:18:55;;;;;;;5.65;2.80;;;0.40;61.10;;;-5.48;94.07;95281.69;4954714;28;20029;-53
2023/01/20 08:21:27;;;;;;;6.10;2.88;;;0.40;61.10;;;-5.40;94.18;95289.41;4972356;28;20121;-48
2023/01/20 08:24:01;;;;;;;3.92;2.78;;;0.50;61.10;;;-5.35;94.67;95293.13;4938094;28;20499;-44
2023/01/20 08:26:32;;;;;;;5.03;3.08;;;0.50;61.00;;;-5.25;94.21;95302.47;4961771;28;20050;-44
2023/01/20 08:29:06;;;;;;;7.57;3.53;;;0.60;61.00;;;-5.17;93.55;95302.38;4955077;28;20054;-47
2023/01/20 08:31:33;;;;;;;7.82;3.10;;;0.70;60.90;;;-5.11;93.25;95314.69;4952349;28;20570;-44
2023/01/20 08:34:05;;;;;;;5.90;2.83;;;0.80;60.90;;;-5.01;93.13;95317.88;4970926;28;20042;-47
2023/01/20 08:36:36;;;;;;;6.30;3.05;;;0.90;60.80;;;-5.07;92.32;95318.56;4950959;28;20385;-45
2023/01/20 08:39:10;;;;;;;19.88;3.55;;;1.00;60.70;;;-5.01;92.35;95324.88;4972179;28;20040;-46
2023/01/20 08:41:42;;;;;;;6.40;2.97;;;1.10;60.70;;;-4.89;92.13;95321.69;4971155;28;20037;-51
2023/01/20 08:44:11;;;;;;;6.18;3.17;;;1.20;60.60;;;-4.82;90.92;95331.38;4960557;28;20034;-44
2023/01/20 08:46:40;;;;;;;5.00;2.78;;;1.30;60.50;;;-4.74;91.10;95329.50;4958212;28;20023;-44
2023/01/20 08:49:10;;;;;;;4.60;2.90;;;1.30;60.30;;;-4.65;90.99;95338.84;4953812;28;20030;-45
2023/01/20 08:51:48;;;;;;;5.65;3.08;;;1.50;60.20;;;-4.54;90.85;95347.22;4972117;28;20476;-45
2023/01/20 08:54:15;;;;;;;4.28;3.15;;;1.60;60.20;;;-4.51;89.93;95350.25;4969822;28;20034;-49
2023/01/20 08:56:53;;;;;;;6.72;3.60;;;1.70;60.10;;;-4.46;89.68;95347.94;4971065;28;20168;-45
2023/01/20 08:59:20;;;;;;;8.30;3.45;;;1.80;60.00;;;-4.30;90.31;95351.34;4954295;28;20045;-46
2023/01/20 09:01:52;;;;;;;7.28;3.40;;;1.90;60.00;;;-4.22;89.95;95349.50;4961023;28;20586;-45
2023/01/20 09:04:18;;;;;;;6.85;3.70;;;2.00;59.90;;;-4.14;89.57;95358.19;4953906;28;20131;-56
2023/01/20 09:06:53;;;;;;;6.68;3.50;;;2.10;59.90;;;-4.03;88.89;95375.97;4950195;28;20807;-48
2023/01/20 09:09:21;;;;;;;7.30;3.17;;;2.20;59.70;;;-3.99;88.06;95380.63;4968912;28;20477;-47
2023/01/20 09:11:51;;;;;;;5.25;3.10;;;2.30;59.60;;;-3.94;87.38;95376.69;4947139;28;20087;-46
2023/01/20 09:14:24;;;;;;;5.13;3.35;;;2.40;59.50;;;-3.99;87.27;95374.63;4957516;28;20074;-46
2023/01/20 09:16:50;;;;;;;;;;;2.50;59.40;;;-3.92;88.58;95372.09;4967601;28;20084;-52
2023/01/20 09:19:18;;;;;;;6.95;3.50;;;2.60;59.30;;;-3.87;87.29;95370.56;4928234;28;20365;-48
2023/01/20 09:21:44;;;;;;;6.82;3.50;;;2.60;59.20;;;-3.82;87.35;95365.66;4954565;28;20373;-45
2023/01/20 09:24:10;;;;;;;6.15;2.67;;;2.70;59.10;;;-3.73;86.49;95372.38;4952739;28;20041;-45
2023/01/20 09:26:39;;;;;;;6.32;3.50;;;2.80;59.00;;;-3.58;87.07;95376.75;4954004;28;20236;-46
2023/01/20 09:29:18;;;;;;;6.55;3.33;;;2.80;58.90;;;-3.53;86.86;95375.22;4953987;28;20041;-47
2023/01/20 09:31:56;;;;;;;4.80;3.10;;;3.00;58.80;;;-3.51;85.25;95373.25;4953040;28;20026;-46
2023/01/20 09:34:29;;;;;;;7.53;3.28;;;3.10;58.70;;;-3.52;85.96;95373.41;4967377;28;20031;-45
2023/01/20 09:43:54;;;;;;;5.30;3.47;;;3.30;58.40;;;-3.26;84.25;95399.78;4970162;28;20118;-45
2023/01/20 09:47:18;;;;;;;6.43;3.40;;;3.50;58.40;;;-3.14;83.78;95413.13;4971199;28;20033;-45
2023/01/20 09:53:58;;;;;;;5.35;3.15;;;3.70;58.10;;;-2.70;83.55;95414.00;4955700;28;20057;-45
2023/01/20 09:56:29;;;;;;;4.45;3.00;;;3.80;58.20;;;-2.63;82.48;95417.50;4951823;28;20290;-45
2023/01/20 09:59:11;;;;;;;7.35;3.38;;;4.00;58.00;;;-2.59;82.25;95410.91;4969632;28;20029;-50
2023/01/20 10:01:53;;;;;;;4.68;3.20;;;4.20;57.70;;;-2.48;82.94;95417.41;4951015;28;20500;-50
2023/01/20 10:04:46;;;;;;;4.10;3.13;;;4.30;57.60;;;-2.27;82.15;95422.63;4969991;28;20050;-50
2023/01/20 10:07:51;;;;;;;5.32;3.55;;;4.40;58.10;;;-2.16;82.10;95418.69;4943715;28;21558;-51
2023/01/20 10:10:38;;;;;;;6.35;3.63;;;4.50;57.50;;;-2.12;80.84;95419.94;4968338;28;20042;-48
2023/01/20 10:13:32;;;;;;;6.85;3.67;;;4.60;57.40;;;-2.18;79.15;95412.84;4966845;28;20488;-54
2023/01/20 10:16:07;;;;;;;7.78;3.78;;;4.70;57.30;;;-2.19;78.39;95417.28;4965105;28;20672;-55
2023/01/20 10:19:03;;;;;;;5.35;3.80;;;4.60;56.90;;;-1.95;79.25;95417.84;4964516;28;20026;-45
2023/01/20 10:21:44;;;;;;;4.75;3.47;;;4.80;56.80;;;-1.81;79.55;95419.53;4951337;28;20058;-52
2023/01/20 10:24:28;;;;;;;10.57;4.70;;;5.10;56.90;;;-1.80;77.79;95426.38;4941260;28;20034;-44
2023/01/20 10:27:12;;;;;;;7.43;4.38;;;5.20;56.80;;;-1.76;78.11;95417.16;4968224;28;20026;-47
2023/01/20 10:29:51;;;;;;;7.57;4.28;;;5.30;56.50;;;-1.46;77.29;95417.72;4952242;28;20173;-45
2023/01/20 10:32:31;;;;;;;7.60;4.38;;;5.60;56.40;;;-1.18;75.67;95422.88;4943544;28;20027;-51
2023/01/20 10:35:16;;;;;;;9.63;3.85;;;6.00;56.20;;;-0.93;73.44;95423.16;4952648;28;20021;-50
2023/01/20 10:37:42;;;;;;;5.22;3.88;;;6.60;55.90;;;-0.83;73.47;95420.19;4966290;28;20036;-51
2023/01/20 10:40:46;;;;;;;6.43;3.80;;;7.00;55.60;;;-0.43;72.38;95424.69;4949742;28;20136;-46
2023/01/20 10:43:18;;;;;;;;;;;7.50;55.20;;;-0.10;69.94;95422.88;4951205;28;20128;-48
2023/01/20 10:46:38;;;;;;;5.85;4.15;;;8.00;55.00;;;0.22;69.36;95420.47;4967835;28;20344;-47
2023/01/20 10:50:41;;;;;;;6.35;4.40;;;8.40;54.20;;;0.66;67.16;95414.53;4962739;28;20405;-50
2023/01/20 10:54:01;;;;;;;7.60;3.95;;;9.10;53.60;;;1.14;65.87;95423.81;4876998;29;20094;-54
2023/01/20 10:56:44;;;;;;;5.95;4.40;;;9.80;52.90;;;1.32;64.57;95420.50;4810707;29;20049;-49
2023/01/20 10:59:33;;;;;;;6.82;4.10;;;10.20;52.30;;;1.40;63.60;95425.50;4957737;28;20414;-49
2023/01/20 11:02:24;;;;;;;6.70;4.60;;;10.60;51.20;;;1.31;66.09;95424.13;4960010;28;20389;-56
2023/01/20 11:05:14;;;;;;;6.43;4.43;;;10.80;50.40;;;1.47;63.88;95422.81;4967861;28;20048;-50